createdAt,value
2024-04-06T00:01:05.350Z,101501.88
2024-04-06T00:06:24.492Z,101498.02
2024-04-06T00:11:27.890Z,101505.73
2024-04-06T00:16:30.910Z,101504.13
2024-04-06T00:21:33.961Z,101506.30
2024-04-06T00:26:40.404Z,101508.43
2024-04-06T00:32:15.986Z,101505.00
2024-04-06T00:37:51.940Z,101499.42
2024-04-06T00:42:55.189Z,101496.02
2024-04-06T00:48:30.135Z,101501.35
2024-04-06T00:53:40.943Z,101496.10
2024-04-06T00:59:16.573Z,101499.80
2024-04-06T01:04:33.058Z,101500.88
2024-04-06T01:09:36.093Z,101495.08
2024-04-06T01:14:46.075Z,101490.10
2024-04-06T01:20:21.437Z,101494.52
2024-04-06T01:25:24.492Z,101493.30
2024-04-06T01:30:27.572Z,101494.30
2024-04-06T01:35:30.964Z,101497.45
2024-04-06T01:40:33.974Z,101497.02
2024-04-06T01:45:37.006Z,101505.06
2024-04-06T01:50:41.003Z,101515.76
2024-04-06T01:55:47.599Z,101521.23
2024-04-06T02:00:57.153Z,101512.98
2024-04-06T02:06:03.540Z,101508.42
2024-04-06T02:11:19.784Z,101501.30
2024-04-06T02:16:24.343Z,101496.63
2024-04-06T02:27:45.968Z,101495.54
2024-04-06T02:32:49.788Z,101490.46
2024-04-06T02:37:52.841Z,101488.73
2024-04-06T02:43:28.170Z,101492.59
2024-04-06T02:48:34.975Z,101488.58
2024-04-06T02:54:10.074Z,101487.45
2024-04-06T02:59:14.813Z,101481.80
2024-04-06T03:04:49.434Z,101477.44
2024-04-06T03:10:56.980Z,101478.56
2024-04-06T03:16:32.248Z,101475.33
2024-04-06T03:21:35.419Z,101477.07
2024-04-06T03:27:10.677Z,101477.90
2024-04-06T03:32:23.158Z,101482.84
2024-04-06T03:37:58.411Z,101477.52
2024-04-06T03:43:01.544Z,101481.16
2024-04-06T03:48:15.123Z,101488.77
2024-04-06T03:53:42.351Z,101497.18
2024-04-06T03:59:17.752Z,101491.02
2024-04-06T04:04:22.084Z,101493.11
2024-04-06T04:09:58.783Z,101499.78
2024-04-06T04:15:11.029Z,101504.73
2024-04-06T04:20:24.559Z,101502.17
2024-04-06T04:25:59.882Z,101499.45
2024-04-06T04:31:13.853Z,101497.39
2024-04-06T04:36:17.000Z,101505.73
2024-04-06T04:41:19.978Z,101512.04
2024-04-06T04:46:23.302Z,101516.20
2024-04-06T04:51:34.477Z,101515.17
2024-04-06T04:57:09.610Z,101522.92
2024-04-06T05:02:25.910Z,101523.67
2024-04-06T05:07:46.560Z,101520.15
2024-04-06T05:13:21.995Z,101518.79
2024-04-06T05:18:29.745Z,101505.98
2024-04-06T05:24:05.994Z,101507.00
2024-04-06T05:29:15.487Z,101504.06
2024-04-06T05:34:50.989Z,101513.74
2024-04-06T05:39:56.341Z,101507.37
2024-04-06T05:45:30.979Z,101504.86
2024-04-06T05:50:47.439Z,101517.94
2024-04-06T05:55:59.656Z,101521.51
2024-04-06T06:01:11.666Z,101524.64
2024-04-06T06:06:54.080Z,101513.95
2024-04-06T06:12:03.970Z,101527.61
2024-04-06T06:17:39.213Z,101523.48
2024-04-06T06:22:42.275Z,101526.56
2024-04-06T06:27:47.406Z,101529.80
2024-04-06T06:32:51.507Z,101533.37
2024-04-06T06:38:27.849Z,101534.10
2024-04-06T06:43:34.634Z,101535.42
2024-04-06T06:49:11.605Z,101545.56
2024-04-06T06:54:19.408Z,101558.16
2024-04-06T07:05:15.783Z,101555.62
2024-04-06T07:10:51.343Z,101558.26
2024-04-06T07:16:29.925Z,101554.42
2024-04-06T07:21:39.113Z,101550.95
2024-04-06T07:26:56.909Z,101547.61
2024-04-06T07:32:02.264Z,101545.89
2024-04-06T07:37:43.345Z,101543.38
2024-04-06T07:42:55.128Z,101540.55
2024-04-06T07:48:30.409Z,101535.52
2024-04-06T07:53:40.887Z,101523.85
2024-04-06T07:59:16.293Z,101524.75
2024-04-06T08:04:19.293Z,101530.04
2024-04-06T08:09:32.872Z,101527.36
2024-04-06T08:15:40.329Z,101532.87
2024-04-06T08:20:50.326Z,101529.58
2024-04-06T08:25:54.830Z,101525.98
2024-04-06T08:31:30.715Z,101523.73
2024-04-06T08:36:33.786Z,101516.52
2024-04-06T08:42:08.723Z,101521.42
2024-04-06T08:47:14.787Z,101521.25
2024-04-06T08:52:38.410Z,101519.21
2024-04-06T08:58:14.619Z,101520.20
2024-04-06T09:03:18.430Z,101515.27
2024-04-06T09:08:53.509Z,101505.91
2024-04-06T09:14:03.664Z,101495.14
2024-04-06T09:19:38.688Z,101489.77
2024-04-06T09:24:49.069Z,101477.83
2024-04-06T09:30:26.252Z,101469.83
2024-04-06T09:35:31.186Z,101470.30
2024-04-06T09:40:56.211Z,101467.55
2024-04-06T09:46:32.063Z,101459.97
2024-04-06T09:51:35.092Z,101449.95
2024-04-06T09:56:38.181Z,101441.64
2024-04-06T10:01:46.099Z,101434.59
2024-04-06T10:06:56.377Z,101428.56
2024-04-06T10:12:04.458Z,101424.45
2024-04-06T10:17:09.164Z,101417.00
2024-04-06T10:22:44.618Z,101410.64
2024-04-06T10:28:07.967Z,101400.80
2024-04-06T10:33:11.017Z,101396.17
2024-04-06T10:38:14.066Z,101387.27
2024-04-06T10:43:17.265Z,101387.23
2024-04-06T10:48:52.037Z,101384.04
2024-04-06T10:54:03.849Z,101380.95
2024-04-06T10:59:39.899Z,101376.83
2024-04-06T11:04:49.545Z,101369.60
2024-04-06T11:09:54.634Z,101360.96
2024-04-06T11:15:01.842Z,101357.60
2024-04-06T11:20:22.011Z,101346.23
2024-04-06T11:25:31.079Z,101345.48
2024-04-06T11:30:34.092Z,101338.89
2024-04-06T11:35:43.576Z,101326.83
2024-04-06T11:41:00.020Z,101321.16
2024-04-06T11:46:10.058Z,101310.41
2024-04-06T11:51:52.968Z,101306.77
2024-04-06T11:57:08.388Z,101298.90
2024-04-06T12:02:45.253Z,101286.13
2024-04-06T12:08:20.214Z,101281.64
2024-04-06T12:13:26.739Z,101275.89
2024-04-06T12:19:02.383Z,101266.94
2024-04-06T12:24:06.957Z,101254.10
2024-04-06T12:29:42.445Z,101252.23
2024-04-06T12:34:48.845Z,101249.48
2024-04-06T12:40:25.750Z,101248.31
2024-04-06T12:46:32.370Z,101239.91
2024-04-06T12:51:38.874Z,101239.02
2024-04-06T12:57:37.644Z,101230.84
2024-04-06T13:02:49.345Z,101228.29
2024-04-06T13:07:53.730Z,101230.48
2024-04-06T13:12:58.102Z,101229.58
2024-04-06T13:18:01.185Z,101229.10
2024-04-06T13:23:04.436Z,101227.05
2024-04-06T13:28:07.436Z,101220.41
2024-04-06T13:33:10.556Z,101219.20
2024-04-06T13:38:13.635Z,101213.97
2024-04-06T13:43:16.887Z,101211.45
2024-04-06T13:48:19.943Z,101205.63
2024-04-06T13:53:23.200Z,101197.27
2024-04-06T13:58:26.310Z,101190.79
2024-04-06T14:03:29.495Z,101184.86
2024-04-06T14:08:33.219Z,101185.42
2024-04-06T14:13:36.373Z,101176.69
2024-04-06T14:18:39.406Z,101171.61
2024-04-06T14:23:42.636Z,101167.88
2024-04-06T14:28:45.784Z,101167.89
2024-04-06T14:33:48.931Z,101163.45
2024-04-06T14:38:51.940Z,101158.61
2024-04-06T14:43:55.187Z,101153.71
2024-04-06T14:48:58.312Z,101147.19
2024-04-06T14:54:02.313Z,101140.86
2024-04-06T14:59:05.446Z,101136.93
2024-04-06T15:04:08.515Z,101138.42
2024-04-06T15:09:11.529Z,101136.12
2024-04-06T15:14:14.554Z,101128.33
2024-04-06T15:19:17.580Z,101131.66
2024-04-06T15:24:21.076Z,101134.13
2024-04-06T15:29:24.183Z,101126.07
2024-04-06T15:34:27.357Z,101121.52
2024-04-06T15:39:30.439Z,101117.40
2024-04-06T15:44:33.493Z,101113.13
2024-04-06T15:49:36.703Z,101112.89
2024-04-06T15:54:40.309Z,101114.51
2024-04-06T15:59:43.394Z,101111.15
2024-04-06T16:04:46.590Z,101103.58
2024-04-06T16:09:49.603Z,101101.95
2024-04-06T16:14:52.679Z,101103.15
2024-04-06T16:19:56.013Z,101105.30
2024-04-06T16:24:59.179Z,101108.48
2024-04-06T16:30:02.246Z,101105.64
2024-04-06T16:35:05.703Z,101106.05
2024-04-06T16:40:09.175Z,101105.09
2024-04-06T16:45:12.229Z,101107.77
2024-04-06T16:50:15.211Z,101105.93
2024-04-06T16:55:18.395Z,101106.24
2024-04-06T17:00:21.545Z,101112.33
2024-04-06T17:05:24.552Z,101124.45
2024-04-06T17:10:27.655Z,101137.61
2024-04-06T17:15:32.616Z,101155.97
2024-04-06T17:20:36.004Z,101174.87
2024-04-06T17:25:39.564Z,101187.36
2024-04-06T17:30:43.219Z,101216.08
2024-04-06T17:35:46.265Z,101259.69
2024-04-06T17:40:50.125Z,101266.71
2024-04-06T17:45:54.488Z,101278.23
2024-04-06T17:50:58.014Z,101276.51
2024-04-06T17:56:01.201Z,101277.39
2024-04-06T18:01:04.694Z,101276.57
2024-04-06T18:06:08.161Z,101280.59
2024-04-06T18:11:12.587Z,101262.91
2024-04-06T18:16:19.738Z,101273.45
2024-04-06T18:21:22.875Z,101270.31
2024-04-06T18:26:26.048Z,101273.35
2024-04-06T18:31:29.061Z,101264.17
2024-04-06T18:36:32.386Z,101245.11
2024-04-06T18:41:37.674Z,101243.74
2024-04-06T18:46:40.772Z,101249.51
2024-04-06T18:51:45.923Z,101246.80
2024-04-06T18:56:49.083Z,101249.64
2024-04-06T19:01:52.135Z,101250.52
2024-04-06T19:06:56.011Z,101236.59
2024-04-06T19:11:59.014Z,101235.06
2024-04-06T19:17:02.039Z,101239.58
2024-04-06T19:22:05.093Z,101248.54
2024-04-06T19:27:08.645Z,101239.00
2024-04-06T19:32:11.656Z,101230.72
2024-04-06T19:37:14.672Z,101236.64
2024-04-06T19:42:19.601Z,101241.53
2024-04-06T19:47:22.717Z,101239.64
2024-04-06T19:52:25.762Z,101239.92
2024-04-06T19:57:28.929Z,101242.11
2024-04-06T20:02:31.996Z,101252.02
2024-04-06T20:07:35.933Z,101250.15
2024-04-06T20:12:39.015Z,101255.48
2024-04-06T20:17:42.071Z,101251.15
2024-04-06T20:23:03.819Z,101256.64
2024-04-06T20:28:06.995Z,101261.52
2024-04-06T20:33:10.008Z,101261.33
2024-04-06T20:38:13.028Z,101263.21
2024-04-06T20:43:16.122Z,101263.23
2024-04-06T20:48:19.766Z,101258.33
2024-04-06T20:53:22.803Z,101257.67
2024-04-06T20:58:25.993Z,101262.39
2024-04-06T21:03:29.093Z,101259.31
2024-04-06T21:08:32.228Z,101255.69
2024-04-06T21:13:35.294Z,101255.05
2024-04-06T21:18:38.350Z,101253.81
2024-04-06T21:23:42.471Z,101255.65
2024-04-06T21:28:45.631Z,101251.55
2024-04-06T21:33:48.647Z,101249.91
2024-04-06T21:38:51.746Z,101259.45
2024-04-06T21:43:54.728Z,101259.59
2024-04-06T21:48:58.149Z,101263.77
2024-04-06T21:54:01.200Z,101255.37
2024-04-06T21:59:04.434Z,101255.58
2024-04-06T22:04:07.514Z,101257.50
2024-04-06T22:09:10.675Z,101284.96
2024-04-06T22:14:14.318Z,101308.17
2024-04-06T22:19:19.567Z,101320.23
2024-04-06T22:24:23.198Z,101258.55
2024-04-06T22:29:26.323Z,101260.41
2024-04-06T22:34:29.346Z,101256.95
2024-04-06T22:39:32.393Z,101254.55
2024-04-06T22:44:35.466Z,101255.77
2024-04-06T22:49:38.511Z,101254.94
2024-04-06T22:54:41.595Z,101262.77
2024-04-06T22:59:47.985Z,101268.24
2024-04-06T23:04:51.011Z,101269.92
2024-04-06T23:09:54.113Z,101276.87
2024-04-06T23:14:57.182Z,101275.52
2024-04-06T23:20:00.263Z,101273.48
2024-04-06T23:25:04.047Z,101280.91
2024-04-06T23:30:08.484Z,101286.36
2024-04-06T23:35:11.540Z,101290.21
2024-04-06T23:40:14.618Z,101293.52
2024-04-06T23:45:17.649Z,101295.58
2024-04-06T23:50:20.739Z,101293.90
2024-04-06T23:55:23.786Z,101283.11
